Montenegro, Brazil
Current Conditions -  °F | °C
As of 8:00 AM on Saturday 01 Nov 2014 (Local Time) from SBCO Reporting Station
Overcast Overcast  
Wind Chill: 22°   Ceiling: 1500
Heat Index: 22°   Visibility: 6mi
Dew Point: 20°   Wind: 5mph
Humidity: 88%   Direction: 140°SE
Pressure: 29.94"   Gusts: NA
Location:  29.69°S, 51.46°W
Report Text: SBCO 011000Z 14004KT 9999 BKN015 OVC020 22/20 Q1014
Loading
Personal Weather Stations






























Interactive Weather Map
Tropical Storm Tracking
New forecast layout! Learn more

10-Day Weather Forecast

Advertisements
Track Severe Weather on mobile